Time;durP1;ratioP1;P1;durP2;ratioP2;P2;SDS_P1;SDS_P2;PMS_P1;PMS_P2;Temp;Humidity;BMP_temperature;BMP_pressure;BME280_temperature;BME280_humidity;BME280_pressure;Samples;Min_cycle;Max_cycle;Signal;HPM_P1;HPM_P2
2021/09/17 00:00:39;;;;;;;10.10;8.00;;;13.40;99.90;;;;;;5021149;28;20162;-83
2021/09/17 00:03:05;;;;;;;8.63;6.50;;;13.10;99.90;;;;;;5021094;28;20169;-83
2021/09/17 00:05:32;;;;;;;11.87;8.30;;;13.30;99.90;;;;;;5020856;28;20229;-83
2021/09/17 00:07:57;;;;;;;8.33;6.83;;;13.30;99.90;;;;;;5020411;28;20189;-83
2021/09/17 00:10:23;;;;;;;7.10;6.40;;;13.20;99.90;;;;;;5020690;28;20392;-83
2021/09/17 00:12:50;;;;;;;7.23;6.53;;;13.20;99.90;;;;;;5019556;28;20161;-83
2021/09/17 00:15:16;;;;;;;10.20;7.40;;;13.30;99.90;;;;;;5020631;28;20173;-83
2021/09/17 00:17:44;;;;;;;11.90;6.97;;;13.20;99.90;;;;;;5020710;28;20400;-83
2021/09/17 00:20:11;;;;;;;8.40;6.93;;;13.10;99.90;;;;;;5020696;28;20412;-82
2021/09/17 00:22:37;;;;;;;7.60;6.90;;;13.10;99.90;;;;;;5018955;28;20393;-82
2021/09/17 00:25:06;;;;;;;10.47;7.97;;;13.20;99.90;;;;;;5020050;28;20440;-83
2021/09/17 00:27:32;;;;;;;12.33;7.30;;;13.10;99.90;;;;;;5020518;28;20399;-83
2021/09/17 00:29:57;;;;;;;16.83;6.97;;;13.00;99.90;;;;;;5020634;28;20388;-83
2021/09/17 00:32:23;;;;;;;8.57;6.97;;;13.10;99.90;;;;;;5021654;28;20157;-83
2021/09/17 00:34:49;;;;;;;8.93;7.10;;;13.20;99.90;;;;;;5021052;28;20184;-83
2021/09/17 00:37:15;;;;;;;9.13;7.70;;;13.10;99.90;;;;;;5020147;28;20197;-83
2021/09/17 00:39:41;;;;;;;7.93;7.13;;;13.30;99.90;;;;;;5023359;28;20165;-83
2021/09/17 00:42:06;;;;;;;11.77;10.03;;;13.30;99.90;;;;;;5038193;28;20173;-83
2021/09/17 00:44:32;;;;;;;13.10;8.03;;;13.20;99.90;;;;;;5036709;28;20177;-83
2021/09/17 00:47:01;;;;;;;8.30;7.50;;;13.30;99.90;;;;;;5038721;28;20231;-83
2021/09/17 00:49:27;;;;;;;15.63;8.20;;;13.20;99.90;;;;;;5034631;28;20405;-82
2021/09/17 00:51:53;;;;;;;11.37;8.30;;;13.40;99.90;;;;;;5019588;28;20415;-83
2021/09/17 00:54:20;;;;;;;9.33;7.97;;;13.50;99.90;;;;;;5027640;28;20164;-83
2021/09/17 00:56:46;;;;;;;8.93;7.43;;;13.60;99.90;;;;;;5030855;28;20228;-83
2021/09/17 00:59:12;;;;;;;10.47;7.00;;;13.40;99.90;;;;;;5021248;28;20863;-83
2021/09/17 01:01:39;;;;;;;11.87;6.77;;;13.30;99.90;;;;;;5020166;28;20400;-83
2021/09/17 01:04:06;;;;;;;10.17;7.73;;;13.30;99.90;;;;;;5019278;28;20404;-83
2021/09/17 01:06:32;;;;;;;13.53;8.80;;;13.30;99.90;;;;;;5019403;28;20444;-83
2021/09/17 01:08:59;;;;;;;8.00;6.97;;;13.40;99.90;;;;;;5018749;28;20498;-82
2021/09/17 01:11:25;;;;;;;15.57;9.43;;;13.50;99.90;;;;;;5018302;28;20401;-83
2021/09/17 01:13:52;;;;;;;8.27;7.03;;;13.50;99.90;;;;;;5020081;28;20397;-83
2021/09/17 01:16:18;;;;;;;8.87;7.67;;;13.30;99.90;;;;;;5018676;28;20404;-82
2021/09/17 01:18:43;;;;;;;10.07;7.70;;;13.20;99.90;;;;;;5019390;28;20404;-82
2021/09/17 01:21:10;;;;;;;10.37;7.37;;;13.20;99.90;;;;;;5017720;28;20165;-82
2021/09/17 01:23:36;;;;;;;11.83;8.80;;;13.20;99.90;;;;;;5019281;28;20252;-83
2021/09/17 01:26:02;;;;;;;9.97;7.53;;;13.20;99.90;;;;;;5018947;28;20539;-83
2021/09/17 01:28:30;;;;;;;12.53;9.33;;;13.10;99.90;;;;;;5019431;28;20452;-82
2021/09/17 01:30:57;;;;;;;9.20;7.23;;;13.20;99.90;;;;;;5018851;28;20400;-83
2021/09/17 01:33:23;;;;;;;8.13;7.13;;;13.20;99.90;;;;;;5017786;28;20401;-83
2021/09/17 01:36:00;;;;;;;10.53;7.57;;;13.10;99.90;;;;;;5017388;28;20412;-83
2021/09/17 01:38:28;;;;;;;10.80;7.47;;;13.00;99.90;;;;;;5019522;28;20392;-82
2021/09/17 01:40:54;;;;;;;11.87;8.10;;;13.10;99.90;;;;;;5017795;28;20405;-83
2021/09/17 01:43:20;;;;;;;9.77;7.83;;;13.20;99.90;;;;;;5019650;28;20396;-83
2021/09/17 01:45:46;;;;;;;9.30;6.93;;;13.20;99.90;;;;;;5017816;28;20444;-83
2021/09/17 01:48:15;;;;;;;11.90;8.40;;;13.40;99.90;;;;;;5018599;28;20384;-83
2021/09/17 01:50:41;;;;;;;10.50;8.13;;;13.40;99.90;;;;;;5018567;28;20399;-83
2021/09/17 01:53:07;;;;;;;8.10;7.20;;;13.30;99.90;;;;;;5001419;28;20416;-83
2021/09/17 01:55:33;;;;;;;11.03;8.30;;;13.20;99.90;;;;;;5019190;28;20400;-83
2021/09/17 01:58:01;;;;;;;9.50;7.17;;;13.30;99.90;;;;;;5019030;28;20459;-83
2021/09/17 02:00:27;;;;;;;12.33;8.50;;;13.30;99.90;;;;;;5018947;28;20165;-83
2021/09/17 02:02:53;;;;;;;9.57;7.40;;;13.40;99.90;;;;;;5018760;28;20482;-83
2021/09/17 02:05:19;;;;;;;10.63;7.63;;;13.40;99.90;;;;;;5018609;28;20204;-83
2021/09/17 02:07:45;;;;;;;10.57;8.00;;;13.50;99.90;;;;;;5020031;28;20168;-83
2021/09/17 02:10:12;;;;;;;10.23;8.13;;;13.40;99.90;;;;;;5020922;28;20470;-83
2021/09/17 02:12:39;;;;;;;9.60;7.07;;;13.40;99.90;;;;;;5021304;28;20758;-83
2021/09/17 02:15:07;;;;;;;12.03;8.20;;;13.40;99.90;;;;;;5020454;28;20404;-83
2021/09/17 02:17:32;;;;;;;9.13;7.57;;;13.40;99.90;;;;;;5022489;28;20411;-79
2021/09/17 02:19:58;;;;;;;10.10;7.60;;;13.30;99.90;;;;;;5024226;28;20408;-82
2021/09/17 02:22:26;;;;;;;9.83;7.40;;;13.30;99.90;;;;;;5021111;28;20174;-82
2021/09/17 02:24:52;;;;;;;8.33;7.53;;;13.50;99.90;;;;;;5022055;28;20239;-82
2021/09/17 02:27:18;;;;;;;9.17;7.80;;;13.40;99.90;;;;;;5021731;28;20392;-83
2021/09/17 02:29:43;;;;;;;10.33;7.97;;;13.30;99.90;;;;;;5022138;28;20392;-83
2021/09/17 02:32:11;;;;;;;10.97;7.93;;;13.30;99.90;;;;;;5021786;28;20161;-81
2021/09/17 02:34:37;;;;;;;15.70;8.80;;;13.20;99.90;;;;;;5021957;28;20161;-83
2021/09/17 02:37:04;;;;;;;7.70;6.90;;;13.10;99.90;;;;;;5021366;28;20403;-84
2021/09/17 02:39:29;;;;;;;13.40;8.20;;;13.30;99.90;;;;;;5021411;28;20432;-83
2021/09/17 02:41:55;;;;;;;11.27;8.60;;;13.30;99.90;;;;;;5021709;28;20404;-83
2021/09/17 02:44:21;;;;;;;9.33;8.40;;;13.40;99.90;;;;;;5021598;28;20170;-82
2021/09/17 02:46:47;;;;;;;11.73;8.83;;;13.30;99.90;;;;;;5021262;28;20200;-82
2021/09/17 02:49:13;;;;;;;10.67;7.67;;;13.10;99.90;;;;;;5021095;28;20165;-82
2021/09/17 02:51:38;;;;;;;10.20;8.50;;;13.10;99.90;;;;;;5021115;28;20168;-83
2021/09/17 02:54:04;;;;;;;8.10;6.80;;;13.20;99.90;;;;;;5021206;28;20181;-82
2021/09/17 02:56:30;;;;;;;9.20;6.60;;;13.20;99.90;;;;;;5021138;28;20275;-82
2021/09/17 02:58:56;;;;;;;9.27;7.03;;;13.40;99.90;;;;;;5021005;28;20257;-82
2021/09/17 03:01:22;;;;;;;9.30;7.40;;;13.30;99.90;;;;;;5019134;28;20170;-82
2021/09/17 03:03:49;;;;;;;9.83;7.03;;;13.30;99.90;;;;;;5020650;28;20165;-83
2021/09/17 03:06:15;;;;;;;7.70;6.53;;;13.30;99.90;;;;;;5019431;28;20197;-83
2021/09/17 03:08:41;;;;;;;9.77;7.73;;;13.20;99.90;;;;;;5019639;28;20463;-83
2021/09/17 03:11:07;;;;;;;10.00;8.30;;;13.20;99.90;;;;;;5020817;28;20408;-82
2021/09/17 03:13:33;;;;;;;12.40;7.50;;;13.10;99.90;;;;;;5020751;28;20632;-83
2021/09/17 03:16:00;;;;;;;10.50;8.80;;;13.00;99.90;;;;;;5020588;28;20399;-82
2021/09/17 03:18:26;;;;;;;13.13;7.90;;;12.90;99.90;;;;;;5020408;28;20798;-82
2021/09/17 03:20:52;;;;;;;12.17;8.87;;;13.10;99.90;;;;;;5020399;28;20488;-83
2021/09/17 03:23:19;;;;;;;10.50;7.80;;;13.10;99.90;;;;;;5020562;28;20224;-81
2021/09/17 03:25:45;;;;;;;12.60;9.47;;;12.90;99.90;;;;;;5020125;28;20447;-83
2021/09/17 03:28:10;;;;;;;9.20;7.87;;;12.80;99.90;;;;;;5020347;28;20923;-83
2021/09/17 03:30:38;;;;;;;10.73;6.80;;;12.90;99.90;;;;;;5020324;28;20164;-82
2021/09/17 03:33:06;;;;;;;13.13;9.10;;;13.00;99.90;;;;;;5020352;28;20499;-82
2021/09/17 03:35:31;;;;;;;9.77;8.07;;;13.20;99.90;;;;;;5020144;28;20412;-82
2021/09/17 03:37:59;;;;;;;9.03;7.13;;;13.00;99.90;;;;;;5020199;28;20408;-82
2021/09/17 03:40:24;;;;;;;10.23;8.77;;;13.00;99.90;;;;;;5019952;28;20215;-83
2021/09/17 03:42:50;;;;;;;10.10;8.30;;;12.80;99.90;;;;;;5020836;28;20409;-82
2021/09/17 03:45:16;;;;;;;10.57;8.13;;;12.90;99.90;;;;;;5020102;28;20204;-83
2021/09/17 03:47:42;;;;;;;11.80;7.40;;;12.90;99.90;;;;;;5019915;28;20165;-83
2021/09/17 03:50:08;;;;;;;9.50;7.00;;;12.80;99.90;;;;;;5019808;28;20162;-82
2021/09/17 03:52:34;;;;;;;7.80;6.80;;;12.90;99.90;;;;;;5019617;28;20170;-83
2021/09/17 03:54:59;;;;;;;9.20;7.43;;;12.90;99.90;;;;;;5019941;28;20393;-83
2021/09/17 03:57:25;;;;;;;8.90;8.00;;;13.00;99.90;;;;;;5021423;28;20229;-81
2021/09/17 03:59:51;;;;;;;10.30;7.33;;;13.20;99.90;;;;;;5022050;28;20602;-83
2021/09/17 04:02:18;;;;;;;8.80;7.03;;;13.20;99.90;;;;;;5021531;28;20212;-83
2021/09/17 04:04:43;;;;;;;9.97;7.53;;;13.00;99.90;;;;;;5021339;28;20396;-82
2021/09/17 04:07:09;;;;;;;12.57;8.17;;;13.00;99.90;;;;;;5020859;28;20411;-82
2021/09/17 04:09:35;;;;;;;11.00;8.07;;;13.10;99.90;;;;;;5021208;28;20197;-83
2021/09/17 04:12:02;;;;;;;8.27;7.47;;;13.10;99.90;;;;;;5021049;28;20278;-83
2021/09/17 04:14:28;;;;;;;7.73;6.97;;;13.00;99.90;;;;;;5021657;28;20577;-83
2021/09/17 04:16:54;;;;;;;8.97;7.50;;;13.00;99.90;;;;;;5021428;28;20395;-83
2021/09/17 04:19:20;;;;;;;10.20;6.50;;;13.00;99.90;;;;;;5021179;28;20723;-81
2021/09/17 04:21:46;;;;;;;15.43;6.93;;;13.00;99.90;;;;;;5021305;28;20248;-83
2021/09/17 04:24:11;;;;;;;8.00;7.10;;;13.00;99.90;;;;;;5020209;28;20535;-82
2021/09/17 04:26:38;;;;;;;9.43;6.53;;;13.00;99.90;;;;;;5021366;28;20193;-83
2021/09/17 04:29:04;;;;;;;7.73;7.03;;;13.10;99.90;;;;;;5027278;28;20650;-81
2021/09/17 04:31:31;;;;;;;8.50;7.60;;;13.10;99.90;;;;;;5035958;28;20460;-81
2021/09/17 04:33:58;;;;;;;16.90;8.43;;;13.20;99.90;;;;;;5024108;28;20396;-82
2021/09/17 04:36:24;;;;;;;12.10;9.03;;;13.30;99.90;;;;;;5018925;28;20511;-82
2021/09/17 04:38:49;;;;;;;10.30;7.93;;;13.40;99.90;;;;;;5018589;28;20428;-82
2021/09/17 04:41:15;;;;;;;10.03;8.93;;;13.50;99.90;;;;;;5022048;28;20174;-83
2021/09/17 04:43:41;;;;;;;12.03;8.00;;;13.50;99.90;;;;;;5020627;28;20173;-83
2021/09/17 04:46:07;;;;;;;9.17;7.70;;;13.40;99.90;;;;;;5020868;28;20709;-82
2021/09/17 04:48:33;;;;;;;12.87;9.33;;;13.30;99.90;;;;;;5019816;28;20197;-83
2021/09/17 04:50:58;;;;;;;11.80;8.90;;;13.30;99.90;;;;;;5021412;28;20244;-83
2021/09/17 04:53:25;;;;;;;14.00;8.57;;;13.40;99.90;;;;;;5019320;28;20161;-83
2021/09/17 04:55:51;;;;;;;14.40;9.57;;;13.60;99.90;;;;;;5021310;28;20633;-83
2021/09/17 04:58:18;;;;;;;16.33;10.93;;;13.80;99.90;;;;;;5021864;28;20812;-80
2021/09/17 05:00:47;;;;;;;14.47;10.40;;;14.00;99.90;;;;;;5010919;28;20465;-83
2021/09/17 05:03:13;;;;;;;12.87;9.30;;;13.90;99.90;;;;;;5019230;28;20436;-81
2021/09/17 05:05:39;;;;;;;13.80;9.57;;;14.10;99.90;;;;;;5018380;28;20209;-82
2021/09/17 05:08:05;;;;;;;13.50;9.50;;;14.20;99.90;;;;;;5018353;28;20731;-83
2021/09/17 05:10:31;;;;;;;13.30;10.70;;;14.20;99.90;;;;;;5005024;28;20455;-82
2021/09/17 05:12:57;;;;;;;15.00;10.70;;;14.30;99.90;;;;;;5017107;28;20199;-82
2021/09/17 05:15:22;;;;;;;12.23;8.73;;;14.40;99.90;;;;;;5016335;28;20281;-83
2021/09/17 05:17:48;;;;;;;14.70;10.80;;;14.50;99.90;;;;;;5016874;28;20712;-82
2021/09/17 05:20:15;;;;;;;16.40;11.93;;;14.50;99.90;;;;;;5017478;28;20578;-82
2021/09/17 05:22:41;;;;;;;12.73;11.40;;;14.60;99.90;;;;;;5000571;28;20204;-82
2021/09/17 05:25:08;;;;;;;16.27;11.47;;;14.50;99.90;;;;;;5018260;28;20458;-82
2021/09/17 05:27:35;;;;;;;16.50;12.03;;;14.40;99.90;;;;;;5017531;28;20432;-81
2021/09/17 05:30:01;;;;;;;13.63;11.43;;;14.50;99.90;;;;;;5016571;28;20407;-83
2021/09/17 05:32:27;;;;;;;17.23;12.27;;;14.50;99.90;;;;;;5019026;28;20510;-81
2021/09/17 05:34:53;;;;;;;18.80;12.07;;;14.50;99.90;;;;;;5018951;28;20201;-83
2021/09/17 05:37:19;;;;;;;13.97;12.47;;;14.50;99.90;;;;;;5019066;28;20174;-82
2021/09/17 05:39:45;;;;;;;18.07;13.47;;;14.50;99.90;;;;;;5017980;28;20427;-82
2021/09/17 05:42:11;;;;;;;17.13;14.40;;;14.50;99.90;;;;;;5020021;28;20409;-83
2021/09/17 05:44:52;;;;;;;15.10;11.77;;;14.50;99.90;;;;;;5021072;28;20503;-83
2021/09/17 05:47:18;;;;;;;16.80;13.33;;;14.60;99.90;;;;;;5018601;28;20215;-82
2021/09/17 05:49:44;;;;;;;21.00;13.93;;;14.60;99.90;;;;;;5019583;28;20420;-82
2021/09/17 05:52:10;;;;;;;24.13;14.80;;;14.70;99.90;;;;;;5019226;28;20438;-83
2021/09/17 05:54:37;;;;;;;21.50;16.30;;;14.70;99.90;;;;;;5019044;28;20425;-83
2021/09/17 05:57:04;;;;;;;17.30;13.50;;;14.80;99.90;;;;;;5022467;28;20239;-82
2021/09/17 05:59:29;;;;;;;19.93;14.73;;;14.80;99.90;;;;;;5024558;28;20435;-83
2021/09/17 06:01:55;;;;;;;14.20;11.70;;;14.80;99.90;;;;;;5024052;28;20419;-83
2021/09/17 06:04:21;;;;;;;19.47;13.60;;;14.70;99.90;;;;;;5020169;28;20170;-83
2021/09/17 06:06:47;;;;;;;13.97;11.40;;;14.70;99.90;;;;;;5022797;28;20212;-83
2021/09/17 06:09:13;;;;;;;17.20;13.83;;;14.70;99.90;;;;;;5023156;28;20205;-84
2021/09/17 06:11:39;;;;;;;19.70;15.43;;;14.70;99.90;;;;;;5023077;28;20300;-83
2021/09/17 06:14:05;;;;;;;15.73;13.07;;;14.70;99.90;;;;;;5006474;28;20464;-84
2021/09/17 06:16:33;;;;;;;18.30;13.77;;;14.70;99.90;;;;;;5024172;28;20470;-84
2021/09/17 06:19:03;;;;;;;17.17;13.37;;;14.70;99.90;;;;;;5024531;28;20161;-84
2021/09/17 06:21:31;;;;;;;16.07;12.60;;;14.80;99.90;;;;;;5023579;28;20485;-83
2021/09/17 06:23:58;;;;;;;16.40;13.93;;;14.80;99.90;;;;;;5023532;28;20424;-84
2021/09/17 06:26:24;;;;;;;16.70;11.87;;;14.70;99.90;;;;;;5024079;28;20487;-83
2021/09/17 06:28:49;;;;;;;18.50;13.57;;;14.50;99.90;;;;;;5024249;28;20935;-83
2021/09/17 06:31:16;;;;;;;15.73;13.40;;;14.50;99.90;;;;;;5024285;28;20446;-84
2021/09/17 06:33:42;;;;;;;17.33;15.53;;;14.60;99.90;;;;;;5022476;28;20182;-83
2021/09/17 06:36:08;;;;;;;16.57;13.20;;;14.50;99.90;;;;;;5024122;28;20431;-83
2021/09/17 06:38:33;;;;;;;21.67;16.87;;;14.70;99.90;;;;;;5022927;28;20420;-83
2021/09/17 06:40:59;;;;;;;19.90;15.60;;;14.90;99.90;;;;;;5023795;28;20179;-83
2021/09/17 06:43:25;;;;;;;19.73;13.87;;;15.00;99.90;;;;;;5023961;28;20174;-83
2021/09/17 06:45:51;;;;;;;16.03;12.97;;;14.40;99.90;;;;;;5023996;28;20451;-82
2021/09/17 06:48:17;;;;;;;29.60;19.20;;;14.10;99.90;;;;;;5022214;28;20299;-82
2021/09/17 06:50:43;;;;;;;25.33;19.37;;;14.50;99.90;;;;;;5008251;28;20166;-83
2021/09/17 06:53:12;;;;;;;28.17;20.03;;;14.70;99.90;;;;;;5023465;28;20387;-83
2021/09/17 06:55:38;;;;;;;30.07;17.90;;;14.80;99.90;;;;;;5023323;28;20404;-83
2021/09/17 06:58:05;;;;;;;26.70;18.90;;;15.00;99.90;;;;;;5023936;28;20221;-84
2021/09/17 07:00:35;;;;;;;24.23;17.60;;;15.20;99.90;;;;;;5022922;28;20212;-83
2021/09/17 07:03:01;;;;;;;27.43;17.30;;;15.20;99.90;;;;;;5023637;28;20464;-83
2021/09/17 07:05:29;;;;;;;24.23;16.93;;;15.50;99.90;;;;;;5024612;28;20468;-84
2021/09/17 07:08:06;;;;;;;18.30;15.20;;;15.40;99.90;;;;;;5006684;28;20738;-83
2021/09/17 07:10:33;;;;;;;23.90;15.93;;;15.00;99.90;;;;;;5025547;28;20396;-82
2021/09/17 07:12:59;;;;;;;16.43;14.10;;;15.20;99.90;;;;;;5014089;28;20569;-83
2021/09/17 07:15:25;;;;;;;15.43;13.73;;;15.50;99.90;;;;;;5037340;28;20439;-81
2021/09/17 07:17:51;;;;;;;18.10;14.37;;;15.50;99.90;;;;;;5022502;28;20400;-83
2021/09/17 07:20:18;;;;;;;16.03;13.23;;;15.70;99.90;;;;;;5021462;28;20213;-83
2021/09/17 07:22:44;;;;;;;22.60;16.00;;;15.60;99.90;;;;;;5001214;28;20953;-84
2021/09/17 07:25:10;;;;;;;23.67;17.17;;;15.70;99.90;;;;;;4999943;28;20555;-83
2021/09/17 07:27:36;;;;;;;17.53;13.93;;;15.90;99.90;;;;;;5001489;28;20154;-83
2021/09/17 07:30:02;;;;;;;15.77;13.43;;;15.80;99.90;;;;;;5001926;28;20393;-83
2021/09/17 07:32:28;;;;;;;19.83;15.20;;;15.90;99.90;;;;;;5000370;28;20401;-84
2021/09/17 07:34:54;;;;;;;17.13;14.70;;;15.80;99.90;;;;;;5012118;28;20420;-83
2021/09/17 07:37:22;;;;;;;15.73;14.13;;;15.50;99.90;;;;;;5020716;28;20200;-82
2021/09/17 07:39:48;;;;;;;16.23;13.23;;;15.70;99.90;;;;;;5020833;28;20413;-83
2021/09/17 07:42:14;;;;;;;14.53;12.43;;;15.80;99.90;;;;;;5020989;28;20423;-82
2021/09/17 07:44:40;;;;;;;11.53;9.57;;;16.00;99.90;;;;;;5021530;28;20408;-83
2021/09/17 07:47:07;;;;;;;12.57;11.37;;;16.10;99.90;;;;;;5020516;28;20443;-81
2021/09/17 07:49:33;;;;;;;12.90;11.37;;;16.00;99.90;;;;;;5019987;28;20393;-81
2021/09/17 07:51:59;;;;;;;12.17;10.90;;;15.90;99.90;;;;;;5018908;28;20393;-83
2021/09/17 07:54:26;;;;;;;11.60;10.27;;;16.00;99.90;;;;;;5019045;28;20451;-83
2021/09/17 07:56:52;;;;;;;13.10;10.80;;;15.60;99.90;;;;;;5020030;28;20232;-84
2021/09/17 07:59:18;;;;;;;21.17;11.77;;;15.50;99.90;;;;;;5018555;28;20428;-84
2021/09/17 08:01:44;;;;;;;13.30;11.33;;;15.80;99.90;;;;;;5018912;28;20424;-81
2021/09/17 08:04:10;;;;;;;13.03;10.53;;;15.90;99.90;;;;;;5019642;28;20425;-84
2021/09/17 08:06:36;;;;;;;11.77;10.53;;;15.90;99.90;;;;;;4996286;28;20204;-83
2021/09/17 08:09:02;;;;;;;11.27;10.20;;;15.90;99.90;;;;;;5014276;28;20189;-84
2021/09/17 08:11:27;;;;;;;14.83;10.60;;;15.90;99.90;;;;;;5018379;28;20173;-83
2021/09/17 08:13:53;;;;;;;14.53;10.50;;;15.80;99.90;;;;;;5019201;28;20174;-84
2021/09/17 08:16:19;;;;;;;12.10;9.73;;;15.60;99.90;;;;;;5017786;28;20185;-84
2021/09/17 08:18:45;;;;;;;14.37;9.87;;;16.20;99.90;;;;;;5017321;28;20241;-84
2021/09/17 08:21:13;;;;;;;11.67;9.43;;;16.70;99.90;;;;;;5018992;28;20507;-83
2021/09/17 08:23:39;;;;;;;10.17;8.13;;;16.90;99.90;;;;;;5020424;28;20397;-84
2021/09/17 08:26:12;;;;;;;8.57;7.43;;;16.20;99.90;;;;;;5018493;28;20452;-83
2021/09/17 08:28:38;;;;;;;9.63;8.60;;;16.30;99.90;;;;;;4997720;28;20940;-84
2021/09/17 08:31:04;;;;;;;10.63;9.00;;;16.20;99.90;;;;;;5010805;28;20421;-82
2021/09/17 08:33:32;;;;;;;11.80;8.70;;;16.30;99.90;;;;;;5018194;28;20197;-83
2021/09/17 08:35:59;;;;;;;7.37;6.67;;;17.00;99.90;;;;;;5019503;28;20547;-83
2021/09/17 08:38:26;;;;;;;9.73;7.50;;;17.50;99.90;;;;;;5019414;28;20427;-83
2021/09/17 08:40:55;;;;;;;8.00;7.20;;;17.60;99.90;;;;;;5018744;28;20914;-84
2021/09/17 08:43:22;;;;;;;6.93;6.33;;;17.80;99.90;;;;;;5019374;28;20804;-85
2021/09/17 08:45:48;;;;;;;6.97;6.27;;;18.40;99.90;;;;;;5018685;28;20514;-84
2021/09/17 08:48:16;;;;;;;6.63;5.70;;;18.20;99.90;;;;;;5011915;28;20439;-83
2021/09/17 08:50:44;;;;;;;11.53;4.83;;;17.80;99.90;;;;;;5020516;28;20535;-84
2021/09/17 08:53:14;;;;;;;4.63;4.23;;;18.60;99.90;;;;;;5018543;28;20431;-84
2021/09/17 08:55:40;;;;;;;5.37;4.83;;;19.30;99.90;;;;;;5000058;28;20413;-84
2021/09/17 08:58:06;;;;;;;4.67;4.30;;;18.60;99.90;;;;;;5029615;28;20531;-84
2021/09/17 09:00:37;;;;;;;3.77;3.47;;;18.30;99.90;;;;;;5035872;28;20165;-84
2021/09/17 09:03:03;;;;;;;4.60;4.20;;;18.90;99.90;;;;;;5031465;28;20432;-84
2021/09/17 09:05:31;;;;;;;5.33;4.83;;;19.20;99.90;;;;;;5031407;28;20510;-83
2021/09/17 09:07:58;;;;;;;4.47;3.90;;;19.30;99.90;;;;;;5023879;28;20228;-84
2021/09/17 09:10:25;;;;;;;6.47;5.87;;;19.50;99.90;;;;;;5021734;28;20467;-82
2021/09/17 09:12:54;;;;;;;9.73;6.30;;;19.40;99.90;;;;;;5019412;28;20423;-84
2021/09/17 09:15:25;;;;;;;4.87;3.63;;;18.70;99.90;;;;;;5017549;28;20865;-84
2021/09/17 09:17:55;;;;;;;4.53;4.23;;;18.90;99.90;;;;;;5019603;28;20420;-84
2021/09/17 09:20:29;;;;;;;5.27;4.77;;;19.30;99.90;;;;;;5021000;28;20432;-84
2021/09/17 09:23:11;;;;;;;5.37;4.83;;;19.30;99.90;;;;;;5006161;28;20479;-83
2021/09/17 09:25:58;;;;;;;4.40;4.03;;;19.60;99.90;;;;;;5036609;28;20455;-84
2021/09/17 09:28:32;;;;;;;5.13;4.63;;;18.70;99.90;;;;;;5036442;28;20493;-84
2021/09/17 09:31:07;;;;;;;5.20;4.30;;;19.10;99.90;;;;;;5020170;28;20407;-84
2021/09/17 09:33:41;;;;;;;7.10;3.90;;;20.10;99.90;;;;;;5015474;28;20597;-84
2021/09/17 09:36:24;;;;;;;5.10;4.47;;;20.60;99.90;;;;;;5038729;28;20458;-84
2021/09/17 09:38:52;;;;;;;5.30;4.80;;;20.30;99.90;;;;;;5036923;28;20861;-84
2021/09/17 09:41:23;;;;;;;4.40;4.00;;;19.10;99.90;;;;;;5004942;28;20415;-84
2021/09/17 09:43:51;;;;;;;5.83;5.33;;;19.10;99.90;;;;;;5038497;28;20441;-85
2021/09/17 09:46:34;;;;;;;3.83;3.53;;;19.30;99.90;;;;;;4991837;28;20505;-83
2021/09/17 09:49:06;;;;;;;6.10;4.20;;;19.80;99.90;;;;;;5035722;28;20415;-82
2021/09/17 09:51:37;;;;;;;4.43;4.00;;;20.00;99.90;;;;;;5024638;28;20452;-84
2021/09/17 09:54:08;;;;;;;6.50;4.50;;;20.20;99.90;;;;;;5000971;28;20885;-84
2021/09/17 09:56:36;;;;;;;6.17;4.60;;;20.30;99.90;;;;;;5017141;28;20468;-83
2021/09/17 09:59:07;;;;;;;3.83;3.20;;;20.20;99.90;;;;;;4996342;28;20413;-84
2021/09/17 10:01:37;;;;;;;4.37;3.97;;;19.40;99.90;;;;;;5001188;28;20412;-84
2021/09/17 10:04:04;;;;;;;4.67;4.10;;;19.50;99.90;;;;;;5018723;28;20411;-83
2021/09/17 10:06:35;;;;;;;5.10;4.60;;;19.40;99.90;;;;;;5014194;28;20957;-84
2021/09/17 10:09:07;;;;;;;4.70;4.30;;;19.00;99.90;;;;;;4984002;28;20424;-83
2021/09/17 10:11:34;;;;;;;6.57;4.53;;;19.30;99.90;;;;;;5000072;28;20385;-83
2021/09/17 10:14:02;;;;;;;4.00;3.60;;;19.30;99.90;;;;;;5000856;28;20467;-83
2021/09/17 10:16:31;;;;;;;4.93;4.43;;;19.30;99.90;;;;;;5000357;28;20479;-84
2021/09/17 10:18:58;;;;;;;5.50;5.00;;;19.40;99.90;;;;;;5017281;28;20454;-83
2021/09/17 10:21:48;;;;;;;4.83;4.43;;;19.50;99.90;;;;;;5026720;28;20784;-82
2021/09/17 10:24:30;;;;;;;5.50;5.00;;;19.60;99.90;;;;;;5020559;28;20474;-84
2021/09/17 10:27:00;;;;;;;5.30;4.90;;;19.70;99.90;;;;;;5037036;28;20903;-84
2021/09/17 10:29:43;;;;;;;6.47;4.87;;;19.80;99.90;;;;;;5004712;28;20400;-83
2021/09/17 10:32:30;;;;;;;4.83;4.40;;;19.90;99.90;;;;;;5004748;28;20511;-83
2021/09/17 10:35:14;;;;;;;4.40;4.00;;;20.10;99.90;;;;;;5027990;28;20450;-84
2021/09/17 10:38:00;;;;;;;4.60;4.20;;;20.50;99.90;;;;;;5000944;28;20567;-84
2021/09/17 10:40:50;;;;;;;4.93;4.43;;;20.90;99.90;;;;;;4998029;28;20393;-84
2021/09/17 10:43:24;;;;;;;6.30;4.67;;;20.00;99.90;;;;;;5017211;28;20409;-82
2021/09/17 10:45:52;;;;;;;5.10;4.60;;;20.30;99.90;;;;;;5000393;28;20448;-83
2021/09/17 10:48:21;;;;;;;5.23;4.73;;;20.60;99.90;;;;;;5002048;28;20390;-83
2021/09/17 10:50:54;;;;;;;4.50;4.10;;;20.10;99.90;;;;;;5021329;28;20796;-84
2021/09/17 10:53:58;;;;;;;5.27;4.77;;;19.90;99.90;;;;;;5020447;28;20408;-84
2021/09/17 10:56:25;;;;;;;4.67;4.27;;;20.40;99.90;;;;;;5020458;28;20517;-83
2021/09/17 10:59:14;;;;;;;5.60;4.30;;;19.60;99.90;;;;;;5020244;28;20432;-82
2021/09/17 11:02:01;;;;;;;5.70;4.50;;;19.30;99.90;;;;;;5018743;28;20439;-83
2021/09/17 11:04:30;;;;;;;7.90;5.70;;;19.10;99.90;;;;;;5021851;28;20412;-83
2021/09/17 11:07:32;;;;;;;5.23;4.73;;;18.80;99.90;;;;;;5020839;28;20867;-85
2021/09/17 11:09:59;;;;;;;5.30;4.80;;;18.90;99.90;;;;;;5020945;28;20925;-83
2021/09/17 11:12:27;;;;;;;6.40;5.60;;;18.70;99.90;;;;;;5021803;28;20482;-83
2021/09/17 11:15:10;;;;;;;6.30;4.70;;;18.60;99.90;;;;;;5022138;28;20421;-83
2021/09/17 11:17:38;;;;;;;4.20;3.90;;;19.00;99.90;;;;;;5020537;28;20420;-83
2021/09/17 11:20:07;;;;;;;5.43;5.03;;;19.40;99.90;;;;;;5020087;28;20424;-84
2021/09/17 11:23:06;;;;;;;9.53;5.40;;;19.40;99.90;;;;;;4991892;28;20421;-83
2021/09/17 11:25:46;;;;;;;6.00;4.87;;;19.40;99.90;;;;;;5021431;28;20458;-84
2021/09/17 11:28:32;;;;;;;6.90;5.17;;;18.60;99.90;;;;;;5020170;28;20420;-84
2021/09/17 11:31:10;;;;;;;5.23;4.73;;;18.80;99.90;;;;;;5021024;28;20932;-84
2021/09/17 11:33:36;;;;;;;5.27;4.73;;;19.30;99.90;;;;;;5023495;28;20431;-84
2021/09/17 11:36:02;;;;;;;4.60;4.20;;;19.80;99.90;;;;;;5022280;28;20412;-84
2021/09/17 11:38:28;;;;;;;4.43;4.07;;;20.10;99.90;;;;;;5023906;28;20169;-84
2021/09/17 11:40:55;;;;;;;5.70;5.20;;;20.10;99.90;;;;;;5020803;28;20420;-84
2021/09/17 11:43:22;;;;;;;5.27;4.20;;;20.50;99.90;;;;;;5020378;28;20189;-83
2021/09/17 11:45:51;;;;;;;7.47;5.10;;;20.90;99.90;;;;;;5028764;28;20523;-82
2021/09/17 11:48:23;;;;;;;3.90;3.60;;;21.50;99.90;;;;;;5030772;28;20422;-82
2021/09/17 11:50:50;;;;;;;4.00;2.83;;;21.90;99.90;;;;;;5024323;28;20400;-85
2021/09/17 11:53:16;;;;;;;3.70;3.40;;;22.30;99.90;;;;;;5021883;28;20400;-83
2021/09/17 11:55:42;;;;;;;3.90;3.50;;;22.80;99.90;;;;;;5003020;28;20534;-83
2021/09/17 11:58:08;;;;;;;7.43;3.40;;;23.10;99.90;;;;;;5003030;28;20229;-83
2021/09/17 12:00:34;;;;;;;4.00;3.70;;;22.80;99.90;;;;;;5020943;28;20523;-83
2021/09/17 12:03:05;;;;;;;4.07;3.77;;;23.30;99.90;;;;;;5020738;28;20174;-82
2021/09/17 12:05:35;;;;;;;3.37;2.80;;;23.60;99.90;;;;;;5035817;28;20279;-84
2021/09/17 12:08:01;;;;;;;4.20;3.83;;;23.50;99.90;;;;;;5020941;28;20404;-83
2021/09/17 12:10:31;;;;;;;3.60;3.30;;;23.30;99.90;;;;;;5020440;28;20404;-84
2021/09/17 12:13:05;;;;;;;7.00;3.77;;;23.20;99.90;;;;;;5026511;28;20388;-84
2021/09/17 12:15:35;;;;;;;3.93;3.53;;;22.30;99.90;;;;;;4993914;28;20415;-83
2021/09/17 12:18:05;;;;;;;4.00;3.70;;;22.10;99.90;;;;;;5019538;28;20459;-83
2021/09/17 12:20:51;;;;;;;4.60;3.70;;;21.50;99.90;;;;;;5020358;28;20400;-82
2021/09/17 12:23:21;;;;;;;4.03;3.37;;;21.20;99.90;;;;;;5035533;28;20405;-83
2021/09/17 12:25:49;;;;;;;7.13;3.83;;;21.40;99.90;;;;;;5021921;28;20448;-84
2021/09/17 12:28:19;;;;;;;3.20;3.00;;;21.40;99.90;;;;;;5021964;28;20458;-84
2021/09/17 12:30:46;;;;;;;3.30;3.00;;;20.90;99.90;;;;;;5021946;28;20432;-85
2021/09/17 12:33:19;;;;;;;3.20;3.00;;;21.10;99.90;;;;;;5022809;28;20404;-85
2021/09/17 12:35:48;;;;;;;4.30;3.00;;;20.90;99.90;;;;;;5027336;28;20400;-83
2021/09/17 12:38:16;;;;;;;2.90;2.63;;;20.90;99.90;;;;;;5035431;28;20408;-84
2021/09/17 12:40:45;;;;;;;3.80;3.00;;;20.70;99.90;;;;;;5034011;28;20405;-84
2021/09/17 12:43:15;;;;;;;2.90;2.70;;;20.40;99.90;;;;;;5035497;28;20388;-84